createdAt,value
2023-04-05T00:02:30.202Z,4.00
2023-04-05T00:05:54.833Z,4.20
2023-04-05T00:09:27.251Z,4.70
2023-04-05T00:12:51.200Z,4.20
2023-04-05T00:16:12.870Z,4.40
2023-04-05T00:19:58.251Z,4.50
2023-04-05T00:23:21.575Z,5.40
2023-04-05T00:26:47.580Z,4.90
2023-04-05T00:30:21.046Z,5.30
2023-04-05T00:33:44.662Z,4.70
2023-04-05T00:37:09.842Z,4.70
2023-04-05T00:40:34.127Z,5.50
2023-04-05T00:44:00.914Z,4.80
2023-04-05T00:47:25.125Z,5.20
2023-04-05T00:50:50.499Z,5.10
2023-04-05T00:54:20.692Z,5.20
2023-04-05T00:57:45.560Z,4.80
2023-04-05T01:01:24.704Z,5.30
2023-04-05T01:04:52.143Z,4.40
2023-04-05T01:08:33.361Z,4.70
2023-04-05T01:12:04.615Z,4.70
2023-04-05T01:15:34.095Z,4.50
2023-04-05T01:19:03.989Z,5.20
2023-04-05T01:22:29.855Z,4.70
2023-04-05T01:26:27.975Z,5.30
2023-04-05T01:30:29.997Z,4.70
2023-04-05T01:34:44.248Z,4.80
2023-04-05T01:38:07.913Z,4.80
2023-04-05T01:41:33.226Z,4.30
2023-04-05T01:45:02.267Z,5.00
2023-04-05T01:52:06.262Z,5.00
2023-04-05T01:55:35.356Z,4.60
2023-04-05T01:58:57.057Z,3.80
2023-04-05T02:02:23.551Z,5.40
2023-04-05T02:05:49.362Z,4.80
2023-04-05T02:09:21.881Z,4.50
2023-04-05T02:12:47.390Z,5.30
2023-04-05T02:16:13.255Z,5.10
2023-04-05T02:19:44.110Z,5.00
2023-04-05T02:23:09.028Z,5.20
2023-04-05T02:26:30.951Z,4.60
2023-04-05T02:29:56.323Z,4.70
2023-04-05T02:33:20.207Z,5.40
2023-04-05T02:36:41.933Z,5.50
2023-04-05T02:40:17.052Z,5.60
2023-04-05T02:43:41.546Z,5.70
2023-04-05T02:47:08.554Z,5.70
2023-04-05T02:50:31.301Z,5.40
2023-04-05T02:53:56.673Z,5.00
2023-04-05T02:57:20.823Z,5.40
2023-04-05T03:01:02.306Z,5.70
2023-04-05T03:04:27.118Z,4.60
2023-04-05T03:07:54.766Z,5.00
2023-04-05T03:11:22.189Z,5.60
2023-04-05T03:14:46.748Z,5.50
2023-04-05T03:18:11.243Z,5.60
2023-04-05T03:21:34.019Z,5.30
2023-04-05T03:25:19.381Z,5.50
2023-04-05T03:28:46.871Z,5.10
2023-04-05T03:32:11.862Z,5.40
2023-04-05T03:35:39.674Z,7.60
2023-04-05T03:39:03.904Z,5.60
2023-04-05T03:42:28.769Z,5.50
2023-04-05T03:45:51.803Z,5.70
2023-04-05T03:49:23.158Z,5.70
2023-04-05T03:52:47.573Z,5.20
2023-04-05T03:56:10.165Z,5.60
2023-04-05T03:59:40.322Z,6.30
2023-04-05T04:03:02.679Z,5.10
2023-04-05T04:06:30.182Z,5.90
2023-04-05T04:09:56.815Z,5.80
2023-04-05T04:13:22.960Z,5.90
2023-04-05T04:16:55.241Z,5.80
2023-04-05T04:20:37.577Z,5.50
2023-04-05T04:24:02.162Z,6.00
2023-04-05T04:27:45.108Z,5.60
2023-04-05T04:31:30.994Z,5.10
2023-04-05T04:35:10.755Z,5.60
2023-04-05T04:38:51.248Z,5.80
2023-04-05T04:42:49.015Z,5.90
2023-04-05T04:46:35.176Z,5.40
2023-04-05T04:50:03.600Z,5.90
2023-04-05T04:53:29.316Z,5.60
2023-04-05T04:56:51.011Z,5.60
2023-04-05T05:00:15.981Z,4.50
2023-04-05T05:03:45.634Z,5.10
2023-04-05T05:07:11.203Z,6.10
2023-04-05T05:10:35.546Z,5.10
2023-04-05T05:14:09.744Z,5.30
2023-04-05T05:17:33.434Z,6.10
2023-04-05T05:20:56.345Z,5.70
2023-04-05T05:24:20.207Z,6.30
2023-04-05T05:27:42.272Z,5.80
2023-04-05T05:31:04.465Z,7.10
2023-04-05T05:34:33.869Z,7.20
2023-04-05T05:37:56.004Z,6.70
2023-04-05T05:41:17.706Z,7.00
2023-04-05T05:44:50.130Z,7.50
2023-04-05T05:48:28.793Z,7.90
2023-04-05T05:51:53.608Z,8.10
2023-04-05T05:55:21.557Z,7.80
2023-04-05T05:58:43.631Z,9.30
2023-04-05T06:02:11.031Z,8.60
2023-04-05T06:05:48.589Z,8.40
2023-04-05T06:09:15.768Z,7.60
2023-04-05T06:12:37.787Z,9.10
2023-04-05T06:16:02.634Z,9.70
2023-04-05T06:19:24.446Z,9.90
2023-04-05T06:22:46.005Z,9.20
2023-04-05T06:26:27.284Z,9.40
2023-04-05T06:29:51.978Z,10.20
2023-04-05T06:33:16.953Z,10.20
2023-04-05T06:36:46.977Z,10.60
2023-04-05T06:40:17.262Z,10.50
2023-04-05T06:43:39.070Z,10.30
2023-04-05T06:47:01.509Z,9.80
2023-04-05T06:50:24.328Z,10.20
2023-04-05T06:53:46.605Z,10.60
2023-04-05T06:57:08.456Z,10.10
2023-04-05T07:00:30.145Z,10.40
2023-04-05T07:03:55.004Z,10.50
2023-04-05T07:07:17.718Z,10.10
2023-04-05T07:10:50.289Z,10.40
2023-04-05T07:14:12.565Z,10.70
2023-04-05T07:17:34.308Z,10.30
2023-04-05T07:21:04.061Z,10.10
2023-04-05T07:24:26.135Z,10.80
2023-04-05T07:27:54.302Z,12.20
2023-04-05T07:31:18.358Z,10.80
2023-04-05T07:35:12.380Z,10.50
2023-04-05T07:38:43.394Z,11.60
2023-04-05T07:42:11.373Z,10.70
2023-04-05T07:46:12.867Z,9.60
2023-04-05T07:53:33.561Z,10.40
2023-04-05T07:56:57.609Z,11.30
2023-04-05T08:01:00.407Z,8.80
2023-04-05T08:05:30.945Z,10.00
2023-04-05T08:09:54.173Z,8.90
2023-04-05T08:13:26.638Z,8.90
2023-04-05T08:16:53.672Z,8.50
2023-04-05T08:20:24.628Z,8.30
2023-04-05T08:23:51.061Z,9.60
2023-04-05T08:27:24.713Z,8.40
2023-04-05T08:31:01.837Z,8.50
2023-04-05T08:34:23.472Z,8.40
2023-04-05T08:37:49.104Z,8.10
2023-04-05T08:41:23.762Z,8.20
2023-04-05T08:44:47.549Z,7.50
2023-04-05T08:48:35.518Z,6.50
2023-04-05T08:52:04.090Z,6.90
2023-04-05T08:55:57.769Z,7.20
2023-04-05T08:59:20.434Z,6.90
2023-04-05T09:02:49.587Z,6.90
2023-04-05T09:06:13.004Z,5.90
2023-04-05T09:09:37.747Z,6.30
2023-04-05T09:13:07.839Z,6.30
2023-04-05T09:17:02.887Z,6.10
2023-04-05T09:20:24.539Z,5.60
2023-04-05T09:24:46.831Z,5.80
2023-04-05T09:32:32.617Z,6.30
2023-04-05T09:36:23.209Z,5.90
2023-04-05T09:39:57.968Z,4.90
2023-04-05T09:43:49.083Z,5.20
2023-04-05T09:47:32.672Z,4.60
2023-04-05T09:51:38.253Z,5.30
2023-04-05T09:55:17.842Z,4.70
2023-04-05T09:58:50.316Z,5.40
2023-04-05T10:03:28.941Z,3.90
2023-04-05T10:15:56.990Z,3.20
2023-04-05T10:19:48.250Z,3.90
2023-04-05T10:23:13.122Z,3.50
2023-04-05T10:27:29.509Z,3.90
2023-04-05T10:36:55.917Z,2.50
2023-04-05T10:41:07.829Z,3.10
2023-04-05T10:45:38.132Z,2.70
2023-04-05T11:04:18.893Z,3.30
2023-04-05T11:09:03.759Z,2.50
2023-04-05T11:13:42.473Z,2.40
2023-04-05T11:22:17.384Z,2.20
2023-04-05T11:27:10.827Z,2.00
2023-04-05T12:07:58.414Z,1.60
2023-04-05T12:13:59.515Z,1.50
2023-04-05T12:35:16.300Z,1.40
2023-04-05T13:25:16.635Z,1.40
2023-04-05T13:29:21.946Z,1.30
2023-04-05T13:42:58.691Z,1.40
2023-04-05T13:52:53.900Z,1.70
2023-04-05T14:06:19.644Z,1.30
2023-04-05T14:19:06.705Z,1.50
2023-04-05T14:23:34.795Z,1.20
2023-04-05T14:41:42.706Z,1.60
2023-04-05T14:51:08.935Z,1.50
2023-04-05T15:02:59.408Z,3.70
2023-04-05T15:11:26.970Z,3.60
2023-04-05T15:15:29.680Z,2.70
2023-04-05T15:20:24.964Z,2.70
2023-04-05T15:37:02.108Z,1.90
2023-04-05T15:40:47.085Z,2.30
2023-04-05T15:44:53.519Z,2.20
2023-04-05T15:49:40.034Z,2.40
2023-04-05T15:58:50.545Z,2.50
2023-04-05T16:02:30.629Z,3.40
2023-04-05T16:18:38.595Z,2.20
2023-04-05T16:22:34.527Z,2.80
2023-04-05T16:26:15.682Z,1.90
2023-04-05T16:30:24.713Z,2.00
2023-04-05T16:33:49.792Z,2.60
2023-04-05T16:37:12.346Z,2.50
2023-04-05T16:40:35.190Z,2.20
2023-04-05T16:43:56.824Z,2.20
2023-04-05T16:47:52.304Z,2.30
2023-04-05T16:51:20.435Z,2.50
2023-04-05T16:54:45.641Z,2.00
2023-04-05T16:58:17.721Z,1.70
2023-04-05T17:01:59.592Z,1.60
2023-04-05T17:05:35.574Z,2.20
2023-04-05T17:09:14.490Z,1.70
2023-04-05T17:12:52.792Z,2.00
2023-04-05T17:16:42.099Z,1.60
2023-04-05T17:20:16.511Z,1.80
2023-04-05T17:23:47.556Z,1.30
2023-04-05T17:27:19.154Z,1.60
2023-04-05T17:31:19.955Z,1.60
2023-04-05T17:34:58.711Z,1.90
2023-04-05T17:38:41.799Z,1.30
2023-04-05T17:42:16.681Z,1.60
2023-04-05T17:45:59.754Z,1.70
2023-04-05T17:49:48.070Z,2.20
2023-04-05T17:53:35.334Z,1.90
2023-04-05T17:57:01.799Z,1.40
2023-04-05T18:00:38.763Z,1.90
2023-04-05T18:04:16.465Z,1.80
2023-04-05T18:07:51.781Z,1.30
2023-04-05T18:11:13.455Z,1.60
2023-04-05T18:14:43.312Z,1.30
2023-04-05T18:18:15.205Z,1.30
2023-04-05T18:21:43.942Z,1.70
2023-04-05T18:25:28.493Z,1.70
2023-04-05T18:29:16.999Z,1.70
2023-04-05T18:33:05.285Z,1.60
2023-04-05T18:41:28.050Z,2.10
2023-04-05T18:48:47.583Z,1.80
2023-04-05T18:52:20.442Z,1.50
2023-04-05T18:55:46.325Z,2.00
2023-04-05T18:59:22.191Z,1.50
2023-04-05T19:17:21.498Z,5.20
2023-04-05T19:21:42.747Z,6.30
2023-04-05T19:25:31.853Z,5.60
2023-04-05T19:29:14.503Z,5.30
2023-04-05T19:32:38.342Z,5.10
2023-04-05T19:36:30.257Z,6.60
2023-04-05T19:39:50.300Z,4.50
2023-04-05T19:43:17.059Z,4.50
2023-04-05T19:46:49.457Z,3.90
2023-04-05T19:50:54.317Z,4.60
2023-04-05T19:54:26.001Z,4.50
2023-04-05T19:57:56.734Z,4.00
2023-04-05T20:01:57.594Z,3.10
2023-04-05T20:18:18.156Z,4.30
2023-04-05T20:34:51.791Z,3.30
2023-04-05T20:38:44.676Z,2.40
2023-04-05T20:43:55.759Z,2.60
2023-04-05T20:56:28.595Z,2.70
2023-04-05T21:00:47.012Z,2.40
2023-04-05T21:05:15.573Z,2.20
2023-04-05T21:09:09.040Z,2.40
2023-04-05T21:13:07.354Z,2.40
2023-04-05T21:16:48.272Z,2.50
2023-04-05T21:20:18.233Z,2.90
2023-04-05T21:27:41.434Z,1.80
2023-04-05T21:34:52.239Z,1.80
2023-04-05T21:38:19.553Z,2.00
2023-04-05T21:41:51.655Z,2.00
2023-04-05T21:50:09.398Z,1.90
2023-04-05T21:58:21.702Z,1.70
2023-04-05T22:15:13.574Z,1.70
2023-04-05T22:18:43.592Z,2.50
2023-04-05T22:22:13.520Z,1.60
2023-04-05T22:25:47.982Z,2.10
2023-04-05T22:30:03.418Z,1.60
2023-04-05T22:39:08.396Z,2.30
2023-04-05T22:46:48.526Z,1.90
2023-04-05T22:54:29.709Z,1.80
2023-04-05T23:01:33.470Z,2.00
2023-04-05T23:05:04.336Z,2.40
2023-04-05T23:08:42.391Z,1.90
2023-04-05T23:12:07.188Z,2.40
2023-04-05T23:16:03.067Z,2.30
2023-04-05T23:19:50.637Z,2.10
2023-04-05T23:23:18.875Z,2.40
2023-04-05T23:26:59.148Z,2.20
2023-04-05T23:30:22.158Z,1.50
2023-04-05T23:33:45.216Z,1.90
2023-04-05T23:37:10.442Z,1.50
2023-04-05T23:40:35.131Z,2.30
2023-04-05T23:44:09.786Z,2.30
2023-04-05T23:47:32.663Z,1.40
2023-04-05T23:55:19.542Z,1.80
2023-04-05T23:59:17.940Z,1.70
